createdAt,value
2022-12-14T00:01:51.853Z,-0.80
2022-12-14T00:04:21.511Z,-0.80
2022-12-14T00:06:49.373Z,-0.60
2022-12-14T00:09:16.223Z,-0.80
2022-12-14T00:11:43.049Z,-0.20
2022-12-14T00:14:10.086Z,-0.80
2022-12-14T00:16:37.321Z,-0.30
2022-12-14T00:19:05.570Z,-0.80
2022-12-14T00:21:33.399Z,-0.80
2022-12-14T00:24:00.527Z,-0.90
2022-12-14T00:26:31.496Z,-0.90
2022-12-14T00:29:01.974Z,-0.90
2022-12-14T00:31:31.137Z,-1.00
2022-12-14T00:33:58.751Z,-1.00
2022-12-14T00:36:25.698Z,-1.00
2022-12-14T00:38:52.767Z,-1.00
2022-12-14T00:41:22.918Z,-0.90
2022-12-14T00:43:50.542Z,-1.10
2022-12-14T00:46:18.198Z,-1.10
2022-12-14T00:48:45.682Z,-1.10
2022-12-14T00:51:14.729Z,-1.20
2022-12-14T00:53:43.498Z,-1.20
2022-12-14T00:56:11.509Z,-1.20
2022-12-14T00:58:38.769Z,-1.10
2022-12-14T01:01:14.665Z,-1.10
2022-12-14T01:03:41.844Z,-1.10
2022-12-14T01:06:20.539Z,-1.10
2022-12-14T01:08:48.584Z,0.00
2022-12-14T01:11:15.631Z,-1.00
2022-12-14T01:13:42.733Z,-0.30
2022-12-14T01:16:12.745Z,-1.00
2022-12-14T01:18:42.549Z,-1.00
2022-12-14T01:21:09.811Z,-1.00
2022-12-14T01:23:37.249Z,-1.00
2022-12-14T01:26:04.603Z,-0.90
2022-12-14T01:28:31.450Z,-0.50
2022-12-14T01:30:58.190Z,-0.90
2022-12-14T01:33:25.358Z,-0.90
2022-12-14T01:35:52.374Z,-0.90
2022-12-14T01:38:19.148Z,-0.90
2022-12-14T01:40:46.017Z,-1.00
2022-12-14T01:43:15.293Z,-1.00
2022-12-14T01:45:43.103Z,-0.60
2022-12-14T01:48:13.634Z,-1.00
2022-12-14T01:50:45.223Z,-1.00
2022-12-14T01:53:17.509Z,-1.10
2022-12-14T01:55:49.561Z,-1.10
2022-12-14T01:58:20.742Z,-0.70
2022-12-14T02:00:48.177Z,-1.10
2022-12-14T02:03:22.082Z,-1.00
2022-12-14T02:05:55.312Z,-1.20
2022-12-14T02:08:23.951Z,-1.10
2022-12-14T02:10:51.795Z,-1.10
2022-12-14T02:13:36.755Z,-1.10
2022-12-14T02:16:03.878Z,-1.10
2022-12-14T02:18:33.247Z,-1.00
2022-12-14T02:21:14.869Z,-1.00
2022-12-14T02:23:56.885Z,-0.70
2022-12-14T02:27:05.868Z,-1.00
2022-12-14T02:29:59.875Z,-0.90
2022-12-14T02:32:44.706Z,-0.90
2022-12-14T02:35:20.465Z,-0.80
2022-12-14T02:38:18.578Z,-0.80
2022-12-14T02:41:11.160Z,-0.80
2022-12-14T02:43:47.831Z,-0.80
2022-12-14T02:46:33.733Z,-0.80
2022-12-14T02:49:06.738Z,-0.80
2022-12-14T02:51:47.139Z,-0.80
2022-12-14T02:54:21.413Z,-0.70
2022-12-14T02:56:53.216Z,-0.80
2022-12-14T02:59:21.422Z,-0.80
2022-12-14T03:01:51.060Z,-0.80
2022-12-14T03:04:20.510Z,-0.40
2022-12-14T03:07:02.939Z,-0.80
2022-12-14T03:09:32.717Z,-0.80
2022-12-14T03:12:10.643Z,-0.80
2022-12-14T03:14:48.673Z,-0.80
2022-12-14T03:17:20.433Z,-0.30
2022-12-14T03:19:57.730Z,-0.80
2022-12-14T03:22:33.601Z,-0.40
2022-12-14T03:25:09.658Z,-0.80
2022-12-14T03:27:40.355Z,-0.70
2022-12-14T03:30:14.734Z,-0.70
2022-12-14T03:32:47.389Z,-0.80
2022-12-14T03:35:27.942Z,-0.70
2022-12-14T03:38:32.521Z,-0.90
2022-12-14T03:41:22.807Z,-0.90
2022-12-14T03:44:10.735Z,-0.80
2022-12-14T03:46:45.782Z,-0.90
2022-12-14T03:49:22.846Z,-0.90
2022-12-14T03:52:01.100Z,-0.90
2022-12-14T03:54:48.209Z,-1.00
2022-12-14T03:57:38.111Z,-0.90
2022-12-14T04:00:09.262Z,-0.90
2022-12-14T04:02:48.843Z,-0.90
2022-12-14T04:05:23.636Z,-0.90
2022-12-14T04:08:31.171Z,-0.90
2022-12-14T04:11:19.389Z,-0.90
2022-12-14T04:14:16.327Z,-0.90
2022-12-14T04:17:03.782Z,-0.90
2022-12-14T04:19:53.712Z,-0.90
2022-12-14T04:22:30.766Z,-0.90
2022-12-14T04:25:24.163Z,-0.40
2022-12-14T04:27:59.750Z,-0.90
2022-12-14T04:30:32.138Z,-1.00
2022-12-14T04:33:26.803Z,-1.00
2022-12-14T04:35:59.732Z,-1.00
2022-12-14T04:38:33.761Z,-0.60
2022-12-14T04:41:06.537Z,-0.90
2022-12-14T04:43:38.769Z,-1.00
2022-12-14T04:46:15.371Z,-1.00
2022-12-14T04:49:11.934Z,-1.00
2022-12-14T04:52:05.256Z,-0.90
2022-12-14T04:55:07.870Z,-0.90
2022-12-14T04:57:48.619Z,-0.90
2022-12-14T05:00:16.317Z,-0.90
2022-12-14T05:03:21.953Z,-1.30
2022-12-14T05:06:21.561Z,-0.90
2022-12-14T05:09:16.576Z,-1.00
2022-12-14T05:12:01.184Z,-1.00
2022-12-14T05:14:39.469Z,-1.00
2022-12-14T05:17:09.300Z,-0.80
2022-12-14T05:19:37.651Z,-0.90
2022-12-14T05:22:09.243Z,-1.00
2022-12-14T05:24:38.209Z,-1.00
2022-12-14T05:27:06.485Z,-1.00
2022-12-14T05:29:33.391Z,-1.00
2022-12-14T05:32:01.522Z,-1.10
2022-12-14T05:34:28.526Z,-0.50
2022-12-14T05:36:55.252Z,-1.00
2022-12-14T05:39:22.065Z,-1.00
2022-12-14T05:41:49.045Z,-1.00
2022-12-14T05:44:16.112Z,-1.00
2022-12-14T05:46:42.974Z,-1.00
2022-12-14T05:49:12.164Z,-1.10
2022-12-14T05:51:39.215Z,-1.10
2022-12-14T05:54:06.061Z,-0.10
2022-12-14T05:56:32.994Z,-1.10
2022-12-14T05:59:00.910Z,-1.10
2022-12-14T06:01:28.120Z,-0.60
2022-12-14T06:03:55.122Z,-1.00
2022-12-14T06:06:21.988Z,-1.00
2022-12-14T06:08:51.547Z,-0.90
2022-12-14T06:11:20.904Z,-1.40
2022-12-14T06:13:48.349Z,-0.90
2022-12-14T06:16:24.523Z,-0.80
2022-12-14T06:18:53.719Z,-0.90
2022-12-14T06:21:23.540Z,-0.80
2022-12-14T06:23:55.790Z,-0.80
2022-12-14T06:26:23.990Z,-0.50
2022-12-14T06:28:53.692Z,-0.90
2022-12-14T06:31:23.731Z,-0.90
2022-12-14T06:33:51.561Z,-0.90
2022-12-14T06:36:28.113Z,-0.80
2022-12-14T06:38:55.799Z,-0.80
2022-12-14T06:41:23.966Z,-0.80
2022-12-14T06:43:52.052Z,-0.80
2022-12-14T06:46:22.220Z,-0.80
2022-12-14T06:48:51.254Z,-0.80
2022-12-14T06:51:18.190Z,-0.90
2022-12-14T06:53:45.060Z,-0.90
2022-12-14T06:56:15.272Z,-1.00
2022-12-14T06:58:42.498Z,-1.00
2022-12-14T07:01:18.191Z,-1.00
2022-12-14T07:03:50.972Z,-1.00
2022-12-14T07:06:17.930Z,0.00
2022-12-14T07:08:44.786Z,-1.00
2022-12-14T07:11:14.764Z,-1.00
2022-12-14T07:13:42.787Z,-1.00
2022-12-14T07:16:15.968Z,-0.90
2022-12-14T07:18:42.967Z,-1.00
2022-12-14T07:21:12.140Z,-0.90
2022-12-14T07:23:40.463Z,-0.90
2022-12-14T07:26:19.785Z,-0.90
2022-12-14T07:28:47.923Z,-0.80
2022-12-14T07:31:21.861Z,-0.80
2022-12-14T07:33:51.796Z,-0.80
2022-12-14T07:36:20.711Z,-0.80
2022-12-14T07:38:49.167Z,-0.90
2022-12-14T07:41:23.116Z,-0.80
2022-12-14T07:43:51.694Z,-0.90
2022-12-14T07:46:23.044Z,-1.00
2022-12-14T07:48:52.744Z,-1.00
2022-12-14T07:51:21.885Z,-1.10
2022-12-14T07:53:50.095Z,-1.10
2022-12-14T07:56:26.549Z,-1.20
2022-12-14T07:58:56.164Z,-1.30
2022-12-14T08:01:27.006Z,-1.30
2022-12-14T08:03:58.983Z,-1.30
2022-12-14T08:06:28.429Z,-1.30
2022-12-14T08:08:55.823Z,-1.30
2022-12-14T08:11:23.695Z,-1.10
2022-12-14T08:14:01.937Z,-1.30
2022-12-14T08:16:29.271Z,-1.40
2022-12-14T08:18:58.010Z,-1.20
2022-12-14T08:21:27.677Z,-1.50
2022-12-14T08:23:55.782Z,-1.50
2022-12-14T08:26:28.788Z,-1.50
2022-12-14T08:29:00.270Z,-1.50
2022-12-14T08:31:28.217Z,-1.50
2022-12-14T08:33:55.398Z,-1.50
2022-12-14T08:36:25.356Z,-1.50
2022-12-14T08:38:57.379Z,-1.50
2022-12-14T08:41:25.969Z,-1.50
2022-12-14T08:43:55.851Z,-1.40
2022-12-14T08:46:23.866Z,-1.40
2022-12-14T08:48:52.628Z,-1.40
2022-12-14T08:51:20.618Z,-1.40
2022-12-14T08:53:48.037Z,-1.40
2022-12-14T08:56:17.665Z,-1.40
2022-12-14T08:58:45.286Z,-1.40
2022-12-14T09:01:32.143Z,-1.40
2022-12-14T09:04:08.402Z,-1.50
2022-12-14T09:06:38.277Z,-1.50
2022-12-14T09:09:11.965Z,-1.60
2022-12-14T09:11:42.445Z,-1.50
2022-12-14T09:14:09.301Z,-1.40
2022-12-14T09:16:36.112Z,-1.40
2022-12-14T09:19:02.819Z,-1.40
2022-12-14T09:21:31.143Z,-1.30
2022-12-14T09:23:59.775Z,-1.30
2022-12-14T09:26:27.402Z,-1.20
2022-12-14T09:28:56.393Z,-1.10
2022-12-14T09:31:25.243Z,-1.10
2022-12-14T09:33:52.165Z,-0.90
2022-12-14T09:36:21.636Z,-0.90
2022-12-14T09:38:52.885Z,-0.90
2022-12-14T09:41:34.957Z,-0.80
2022-12-14T09:44:30.577Z,-0.70
2022-12-14T09:47:19.649Z,-0.70
2022-12-14T09:49:53.335Z,-0.50
2022-12-14T09:52:45.118Z,-0.50
2022-12-14T09:55:20.336Z,-0.50
2022-12-14T09:57:56.018Z,-0.50
2022-12-14T10:00:23.060Z,-0.40
2022-12-14T10:03:00.425Z,-0.30
2022-12-14T10:05:44.849Z,-0.30
2022-12-14T10:08:54.812Z,-0.20
2022-12-14T10:11:45.775Z,-0.10
2022-12-14T10:14:27.674Z,-0.10
2022-12-14T10:17:17.967Z,0.00
2022-12-14T10:20:00.144Z,0.00
2022-12-14T10:22:35.676Z,0.20
2022-12-14T10:25:16.720Z,0.20
2022-12-14T10:30:37.357Z,0.40
2022-12-14T10:33:27.943Z,0.70
2022-12-14T10:36:24.270Z,0.60
2022-12-14T10:39:21.632Z,0.60
2022-12-14T10:42:19.928Z,0.70
2022-12-14T10:45:31.605Z,0.70
2022-12-14T10:47:54.622Z,0.80
2022-12-14T10:50:35.372Z,0.80
2022-12-14T10:53:05.738Z,0.80
2022-12-14T10:55:40.647Z,0.90
2022-12-14T10:58:09.026Z,1.00
2022-12-14T11:00:36.912Z,1.00
2022-12-14T11:03:12.607Z,1.10
2022-12-14T11:05:41.206Z,1.50
2022-12-14T11:08:08.922Z,1.50
2022-12-14T11:10:39.159Z,1.50
2022-12-14T11:13:17.549Z,1.40
2022-12-14T11:15:50.917Z,1.30
2022-12-14T11:18:17.836Z,1.30
2022-12-14T11:21:02.557Z,1.30
2022-12-14T11:23:39.300Z,1.30
2022-12-14T11:26:13.034Z,1.30
2022-12-14T11:28:50.058Z,1.20
2022-12-14T11:31:21.096Z,1.30
2022-12-14T11:33:53.832Z,1.40
2022-12-14T11:36:32.672Z,1.40
2022-12-14T11:39:01.740Z,1.50
2022-12-14T11:41:37.467Z,1.60
2022-12-14T11:44:16.185Z,1.60
2022-12-14T11:46:44.904Z,1.70
2022-12-14T11:49:33.832Z,1.70
2022-12-14T11:52:06.419Z,1.80
2022-12-14T11:54:54.355Z,1.80
2022-12-14T11:57:33.327Z,1.90
2022-12-14T12:00:24.470Z,1.80
2022-12-14T12:03:00.791Z,1.80
2022-12-14T12:05:30.366Z,1.90
2022-12-14T12:07:59.250Z,1.90
2022-12-14T12:10:41.445Z,2.00
2022-12-14T12:13:31.289Z,2.10
2022-12-14T12:16:06.085Z,2.00
2022-12-14T12:18:45.964Z,2.10
2022-12-14T12:21:20.325Z,2.20
2022-12-14T12:24:19.122Z,2.10
2022-12-14T12:26:50.005Z,2.10
2022-12-14T12:29:35.812Z,2.10
2022-12-14T12:32:26.663Z,2.10
2022-12-14T12:35:14.483Z,2.00
2022-12-14T12:37:58.951Z,2.00
2022-12-14T12:40:44.062Z,2.00
2022-12-14T12:43:21.760Z,1.90
2022-12-14T12:46:15.415Z,1.90
2022-12-14T12:48:49.434Z,1.90
2022-12-14T12:51:22.109Z,1.70
2022-12-14T12:53:55.831Z,1.60
2022-12-14T12:56:28.774Z,1.60
2022-12-14T12:58:56.449Z,1.60
2022-12-14T13:01:29.633Z,1.60
2022-12-14T13:04:01.753Z,1.70
2022-12-14T13:06:32.019Z,1.60
2022-12-14T13:09:01.954Z,1.70
2022-12-14T13:11:38.148Z,1.90
2022-12-14T13:14:31.913Z,1.70
2022-12-14T13:17:03.273Z,1.80
2022-12-14T13:19:55.766Z,1.70
2022-12-14T13:22:31.603Z,1.70
2022-12-14T13:25:03.901Z,1.60
2022-12-14T13:27:51.477Z,1.60
2022-12-14T13:30:33.781Z,1.60
2022-12-14T13:33:39.400Z,1.60
2022-12-14T13:36:14.941Z,1.60
2022-12-14T13:38:53.589Z,1.60
2022-12-14T13:41:46.506Z,1.50
2022-12-14T13:44:43.559Z,1.50
2022-12-14T13:47:16.651Z,1.50
2022-12-14T13:50:18.438Z,1.40
2022-12-14T13:52:42.738Z,1.50
2022-12-14T13:55:25.427Z,1.40
2022-12-14T13:57:53.446Z,1.40
2022-12-14T14:00:55.583Z,1.40
2022-12-14T14:03:34.893Z,1.40
2022-12-14T14:06:16.658Z,1.50
2022-12-14T14:08:45.888Z,1.60
2022-12-14T14:14:17.895Z,2.20
2022-12-14T14:16:49.746Z,2.50
2022-12-14T14:19:23.826Z,2.80
2022-12-14T14:22:22.208Z,2.90
2022-12-14T14:25:01.593Z,3.10
2022-12-14T14:28:00.752Z,3.40
2022-12-14T14:30:49.125Z,3.70
2022-12-14T14:33:48.590Z,3.80
2022-12-14T14:36:35.900Z,3.80
2022-12-14T14:39:24.595Z,3.80
2022-12-14T14:41:54.285Z,3.50
2022-12-14T14:44:40.510Z,2.90
2022-12-14T14:47:23.777Z,2.50
2022-12-14T14:49:58.708Z,2.00
2022-12-14T14:52:37.629Z,1.80
2022-12-14T14:55:51.880Z,1.60
2022-12-14T14:58:26.288Z,1.50
2022-12-14T15:00:59.986Z,1.30
2022-12-14T15:03:58.566Z,1.20
2022-12-14T15:06:30.059Z,1.00
2022-12-14T15:09:02.568Z,0.90
2022-12-14T15:11:40.542Z,0.90
2022-12-14T15:14:31.282Z,0.80
2022-12-14T15:16:58.424Z,0.70
2022-12-14T15:19:33.697Z,0.60
2022-12-14T15:22:05.170Z,0.50
2022-12-14T15:24:38.913Z,0.50
2022-12-14T15:27:23.392Z,0.40
2022-12-14T15:29:51.797Z,0.30
2022-12-14T15:32:22.537Z,0.30
2022-12-14T15:34:56.726Z,0.30
2022-12-14T15:37:42.315Z,0.30
2022-12-14T15:40:22.550Z,0.20
2022-12-14T15:42:53.041Z,0.20
2022-12-14T15:45:25.110Z,0.20
2022-12-14T15:47:52.663Z,0.10
2022-12-14T15:50:30.206Z,0.10
2022-12-14T15:53:14.601Z,0.20
2022-12-14T15:55:42.822Z,0.00
2022-12-14T15:58:48.754Z,0.00
2022-12-14T16:01:34.786Z,0.00
2022-12-14T16:04:09.785Z,0.00
2022-12-14T16:06:46.690Z,0.00
2022-12-14T16:09:39.107Z,0.00
2022-12-14T16:12:15.192Z,0.00
2022-12-14T16:14:58.716Z,0.10
2022-12-14T16:17:33.650Z,0.00
2022-12-14T16:20:09.862Z,0.00
2022-12-14T16:22:40.477Z,-0.10
2022-12-14T16:25:08.087Z,-0.10
2022-12-14T16:27:50.328Z,-0.10
2022-12-14T16:30:23.659Z,-0.20
2022-12-14T16:33:03.184Z,-0.20
2022-12-14T16:35:33.940Z,-0.20
2022-12-14T16:38:08.379Z,-0.20
2022-12-14T16:40:41.458Z,-0.30
2022-12-14T16:43:25.332Z,-0.40
2022-12-14T16:45:55.327Z,-0.40
2022-12-14T16:48:23.188Z,-0.40
2022-12-14T16:51:01.784Z,-0.40
2022-12-14T16:53:34.972Z,-0.40
2022-12-14T16:56:17.253Z,-0.30
2022-12-14T16:59:03.306Z,-0.30
2022-12-14T17:01:45.829Z,-0.30
2022-12-14T17:04:14.650Z,-0.30
2022-12-14T17:06:49.291Z,-0.30
2022-12-14T17:09:20.540Z,-0.30
2022-12-14T17:11:51.519Z,-0.40
2022-12-14T17:14:18.897Z,-0.40
2022-12-14T17:16:47.935Z,-0.40
2022-12-14T17:19:25.997Z,-0.40
2022-12-14T17:21:52.881Z,-0.40
2022-12-14T17:24:22.174Z,-0.50
2022-12-14T17:26:50.105Z,-0.40
2022-12-14T17:29:23.369Z,-0.40
2022-12-14T17:31:52.805Z,-0.40
2022-12-14T17:34:19.724Z,-0.40
2022-12-14T17:36:47.080Z,-0.50
2022-12-14T17:39:13.837Z,-0.50
2022-12-14T17:41:44.142Z,-0.50
2022-12-14T17:44:19.877Z,-0.50
2022-12-14T17:46:50.185Z,-0.60
2022-12-14T17:49:33.955Z,-0.60
2022-12-14T17:52:07.261Z,-0.60
2022-12-14T17:54:34.427Z,-0.70
2022-12-14T17:57:01.702Z,-0.70
2022-12-14T17:59:28.931Z,-0.80
2022-12-14T18:01:55.807Z,-0.70
2022-12-14T18:04:22.603Z,-0.90
2022-12-14T18:06:49.289Z,-0.90
2022-12-14T18:09:18.313Z,-0.90
2022-12-14T18:12:14.072Z,-0.80
2022-12-14T18:14:34.113Z,-1.00
2022-12-14T18:17:01.100Z,-0.80
2022-12-14T18:19:29.706Z,-1.00
2022-12-14T18:21:56.533Z,-1.00
2022-12-14T18:24:26.113Z,-1.00
2022-12-14T18:26:53.036Z,-1.00
2022-12-14T18:29:20.394Z,-1.00
2022-12-14T18:31:49.636Z,-1.00
2022-12-14T18:34:16.997Z,-0.90
2022-12-14T18:36:44.006Z,-0.90
2022-12-14T18:39:10.763Z,-0.90
2022-12-14T18:41:37.526Z,-0.90
2022-12-14T18:44:04.414Z,-0.90
2022-12-14T18:46:31.316Z,-0.90
2022-12-14T18:48:59.091Z,-0.90
2022-12-14T18:51:26.879Z,-0.70
2022-12-14T18:53:56.024Z,-0.50
2022-12-14T18:56:25.205Z,-0.40
2022-12-14T18:58:52.517Z,-0.50
2022-12-14T19:01:22.599Z,-0.50
2022-12-14T19:03:50.435Z,-0.60
2022-12-14T19:06:43.468Z,-0.60
2022-12-14T19:09:08.149Z,-0.60
2022-12-14T19:11:41.886Z,-0.60
2022-12-14T19:14:09.195Z,-0.70
2022-12-14T19:16:36.272Z,-0.60
2022-12-14T19:19:03.307Z,-0.60
2022-12-14T19:21:31.547Z,-0.70
2022-12-14T19:23:59.623Z,-0.80
2022-12-14T19:26:28.593Z,-0.90
2022-12-14T19:28:55.876Z,-0.90
2022-12-14T19:31:23.306Z,-0.90
2022-12-14T19:33:50.410Z,-0.80
2022-12-14T19:36:17.979Z,-0.90
2022-12-14T19:38:44.896Z,-0.90
2022-12-14T19:41:17.690Z,-0.90
2022-12-14T19:43:44.557Z,-1.00
2022-12-14T19:46:13.351Z,-1.00
2022-12-14T19:48:40.585Z,-0.90
2022-12-14T19:51:12.930Z,-1.00
2022-12-14T19:53:42.691Z,-1.00
2022-12-14T19:56:10.058Z,-1.00
2022-12-14T19:58:37.154Z,-1.00
2022-12-14T20:01:09.015Z,-1.00
2022-12-14T20:03:36.775Z,-0.90
2022-12-14T20:06:05.572Z,-0.80
2022-12-14T20:08:36.068Z,-0.80
2022-12-14T20:11:11.267Z,-0.60
2022-12-14T20:13:39.501Z,-0.80
2022-12-14T20:16:06.772Z,-0.70
2022-12-14T20:18:33.887Z,-0.80
2022-12-14T20:21:05.985Z,-0.80
2022-12-14T20:23:39.406Z,-0.80
2022-12-14T20:26:10.644Z,-0.90
2022-12-14T20:28:37.975Z,-1.00
2022-12-14T20:31:07.443Z,-1.00
2022-12-14T20:33:35.358Z,-1.10
2022-12-14T20:36:02.772Z,-1.10
2022-12-14T20:38:29.561Z,-1.10
2022-12-14T20:41:03.049Z,-1.10
2022-12-14T20:43:33.033Z,-1.20
2022-12-14T20:46:02.070Z,-1.20
2022-12-14T20:48:29.107Z,-1.10
2022-12-14T20:51:00.776Z,-1.20
2022-12-14T20:53:33.978Z,-1.10
2022-12-14T20:56:03.797Z,-1.10
2022-12-14T20:58:30.720Z,-1.10
2022-12-14T21:01:04.602Z,-1.10
2022-12-14T21:03:31.880Z,-1.10
2022-12-14T21:06:01.142Z,-1.10
2022-12-14T21:08:29.135Z,-1.10
2022-12-14T21:11:21.019Z,-1.10
2022-12-14T21:13:47.825Z,-1.10
2022-12-14T21:16:14.681Z,-1.10
2022-12-14T21:18:41.497Z,-1.10
2022-12-14T21:21:08.564Z,-1.10
2022-12-14T21:23:35.431Z,-1.10
2022-12-14T21:26:06.231Z,-1.10
2022-12-14T21:28:33.069Z,-1.10
2022-12-14T21:31:06.422Z,-1.10
2022-12-14T21:33:35.733Z,-1.10
2022-12-14T21:36:09.284Z,-1.10
2022-12-14T21:38:36.689Z,-1.10
2022-12-14T21:41:22.948Z,-1.20
2022-12-14T21:43:50.936Z,-1.10
2022-12-14T21:46:20.448Z,-1.20
2022-12-14T21:48:47.245Z,-1.30
2022-12-14T21:51:16.919Z,-1.30
2022-12-14T21:53:58.629Z,-0.90
2022-12-14T21:56:55.386Z,-1.30
2022-12-14T21:59:27.984Z,-1.30
2022-12-14T22:01:56.102Z,-1.20
2022-12-14T22:04:24.049Z,-1.20
2022-12-14T22:06:50.838Z,-1.20
2022-12-14T22:09:18.783Z,-1.40
2022-12-14T22:11:47.223Z,-1.30
2022-12-14T22:14:19.603Z,-1.20
2022-12-14T22:16:46.799Z,-1.30
2022-12-14T22:19:18.809Z,-1.30
2022-12-14T22:21:45.763Z,-1.30
2022-12-14T22:24:16.509Z,-1.30
2022-12-14T22:26:44.604Z,-1.20
2022-12-14T22:29:12.327Z,-1.30
2022-12-14T22:31:39.164Z,-1.30
2022-12-14T22:34:06.840Z,-1.30
2022-12-14T22:36:33.779Z,-1.40
2022-12-14T22:39:01.235Z,-1.30
2022-12-14T22:41:28.150Z,-1.30
2022-12-14T22:44:01.391Z,-1.30
2022-12-14T22:46:28.294Z,-1.30
2022-12-14T22:48:56.807Z,-1.30
2022-12-14T22:51:28.423Z,-1.20
2022-12-14T22:53:58.568Z,-1.20
2022-12-14T22:56:39.560Z,-1.20
2022-12-14T22:59:16.625Z,-1.20
2022-12-14T23:01:50.044Z,-1.20
2022-12-14T23:04:18.998Z,-1.20
2022-12-14T23:06:46.021Z,-1.20
2022-12-14T23:09:35.198Z,-1.20
2022-12-14T23:12:22.008Z,-0.70
2022-12-14T23:15:08.392Z,-1.20
2022-12-14T23:17:54.361Z,-1.20
2022-12-14T23:20:39.671Z,-1.20
2022-12-14T23:23:26.258Z,-1.20
2022-12-14T23:26:12.281Z,-1.20
2022-12-14T23:28:57.870Z,-1.20
2022-12-14T23:31:43.358Z,-1.30
2022-12-14T23:34:28.967Z,-1.20
2022-12-14T23:37:19.759Z,-1.20
2022-12-14T23:40:06.139Z,-1.30
2022-12-14T23:42:51.688Z,-1.30
2022-12-14T23:45:36.945Z,-1.30
2022-12-14T23:48:22.396Z,-1.20
2022-12-14T23:51:07.900Z,-1.30
2022-12-14T23:53:53.365Z,-1.40
2022-12-14T23:56:39.119Z,-1.40
2022-12-14T23:59:29.785Z,-1.40
